Detalii statie AGROKAISER STANESTI [0000198D]

Toti senzorii

Date Temperatura solului [C]Precipitatii [mm]Voltaj baterie [mV]Leaf Wetness [Min]HC Air temperature [C]HC Relative humidity [%]Punctul de roua [C]
medieminmaxsumaultimatimpmedieminmaxmediemediemin
2019-08-15 20:00:00 0 6678 24.48 24.15 24.96 85.38 21.7 20.6
2019-08-15 21:00:00 0 6678 23.19 22.56 23.96 84.36 20.2 19.7
2019-08-15 22:00:00 0 6678 22.05 21.66 22.51 85.45 19.4 18.8
2019-08-15 23:00:00 0 6668 20.82 20.21 21.53 88.03 18.6 18.3
2019-08-16 00:00:00 0 6668 19.85 19.5 20.17 89.5 17.9 17.6
2019-08-16 01:00:00 0 6660 19.06 18.73 19.39 93.18 17.7 17.5
2019-08-16 02:00:00 0 6640 18.18 17.68 18.64 96.13 17.4 17.1
2019-08-16 03:00:00 0 6640 17.65 17.58 17.69 98.22 17.2 17.1
2019-08-16 04:00:00 0 6630 17.69 17.5 17.79 98.22 17.2 17
2019-08-16 05:00:00 0 6630 17.42 17.33 17.53 97.7 16.9 16.8
2019-08-16 06:00:00 0 6640 17.23 17.16 17.33 99.63 17 17
2019-08-16 07:00:00 0 6962 17.73 17.26 18.7 97.52 17.2 17
2019-08-16 08:00:00 0 7196 19.4 18.75 19.89 87.78 17.1 16.7
2019-08-16 09:00:00 0 7246 19.59 18.72 20.93 85.12 16.9 16.6
2019-08-16 10:00:00 0 7264 21.06 20.38 22.28 79.56 17.2 16.7
2019-08-16 11:00:00 0 7246 22.41 21.92 23.45 74.83 17.5 17
2019-08-16 12:00:00 0 7148 22.88 21.88 23.78 73.72 17.7 17.2
2019-08-16 13:00:00 0 7254 23.56 22.64 25.22 72.68 18.1 17.5
2019-08-16 14:00:00 0 7246 25.1 24.49 25.84 68.24 18.6 18.2
2019-08-16 15:00:00 0 7050 25.94 25.4 26.59 65.67 18.8 18.3
2019-08-16 16:00:00 0 6952 25.95 25.33 26.56 65.56 18.8 18.2
2019-08-16 17:00:00 0 6874 25.65 25.13 26.47 65.97 18.6 18.2
2019-08-16 18:00:00 0 6796 25.21 25.06 25.44 67.19 18.5 18.2
2019-08-16 19:00:00 0 6718 24.07 22.99 24.72 71.18 18.3 18
2019-08-16 20:00:00 0 6688 22.1 21.43 22.79 75.51 17.4 17.2
2019-08-16 21:00:00 0 6678 20.49 19.88 21.22 81.11 16.9 16.6
2019-08-16 22:00:00 0 6678 19.63 19.32 20 85.66 17 16.8
2019-08-16 23:00:00 0 6668 19.42 19.21 19.65 88.57 17.3 17.1
2019-08-17 00:00:00 0 6668 18.69 17.88 19.48 90.7 17 16.8
2019-08-17 01:00:00 0 6660 17.46 17.14 17.79 99.16 17.2 16.9
2019-08-17 02:00:00 0 6640 17.17 17.15 17.25 100 17.1 17.1
2019-08-17 03:00:00 0 6640 16.6 16.41 17.05 100 16.5 16.4
2019-08-17 04:00:00 0 6630 16.64 16.17 17.1 100 16.6 16.1
2019-08-17 05:00:00 0 6640 16.47 16.3 16.59 100 16.4 16.3
2019-08-17 06:00:00 0 6630 16.91 16.36 17.47 100 16.8 16.3
2019-08-17 07:00:00 0 6640 16.99 16.38 17.46 100 16.9 16.3
2019-08-17 08:00:00 0 6640 16.52 16.21 16.75 100 16.4 16.2
2019-08-17 09:00:00 0 6698 16.96 16.61 17.22 100 16.9 16.6
2019-08-17 10:00:00 0 6864 18.52 17.25 19.91 99.94 18.4 17.2
2019-08-17 11:00:00 0 7264 22.81 20.54 24.68 83.81 19.7 19
2019-08-17 12:00:00 0 7128 24.48 23.11 25.28 72.69 19 18.4
2019-08-17 13:00:00 0 7108 25.34 24.85 26.01 67.86 18.7 17.6
2019-08-17 14:00:00 0 7050 26.4 25.31 27.13 63.36 18.6 17.7
2019-08-17 15:00:00 0 7108 26.93 26.43 27.45 60.74 18.5 18
2019-08-17 16:00:00 0 7080 27.48 27.1 27.87 56.76 17.9 17.6
2019-08-17 17:00:00 0 6874 26.8 26.48 27.08 59.3 18 17.7
2019-08-17 18:00:00 0 6766 26.48 26.33 26.73 61.12 18.2 18
2019-08-17 19:00:00 0 6708 26.35 25.58 26.92 62 18.2 17.9